sensor_id;sensor_type;location;lat;lon;timestamp;temperature;humidity
22633;DHT22;11483;55.828;37.488;2022-12-10T00:02:20;-1.70;99.90
22633;DHT22;11483;55.828;37.488;2022-12-10T00:04:46;-1.70;99.90
22633;DHT22;11483;55.828;37.488;2022-12-10T00:07:12;-1.60;99.90
22633;DHT22;11483;55.828;37.488;2022-12-10T00:09:38;-1.60;99.90
22633;DHT22;11483;55.828;37.488;2022-12-10T00:12:04;-1.60;99.90
22633;DHT22;11483;55.828;37.488;2022-12-10T00:14:30;-1.60;99.90
22633;DHT22;11483;55.828;37.488;2022-12-10T00:16:56;-1.70;99.90
22633;DHT22;11483;55.828;37.488;2022-12-10T00:19:22;-1.60;99.90
22633;DHT22;11483;55.828;37.488;2022-12-10T00:21:47;-1.60;99.90
22633;DHT22;11483;55.828;37.488;2022-12-10T00:24:13;-1.60;99.90
22633;DHT22;11483;55.828;37.488;2022-12-10T00:26:39;-1.60;99.90
22633;DHT22;11483;55.828;37.488;2022-12-10T00:29:07;-1.60;99.90
22633;DHT22;11483;55.828;37.488;2022-12-10T00:31:35;-1.60;99.90
22633;DHT22;11483;55.828;37.488;2022-12-10T00:34:05;-1.60;99.90
22633;DHT22;11483;55.828;37.488;2022-12-10T00:36:34;-1.60;99.90
22633;DHT22;11483;55.828;37.488;2022-12-10T00:39:00;-1.60;99.90
22633;DHT22;11483;55.828;37.488;2022-12-10T00:41:26;-1.60;99.90
22633;DHT22;11483;55.828;37.488;2022-12-10T00:43:52;-1.60;99.90
22633;DHT22;11483;55.828;37.488;2022-12-10T00:46:19;-1.50;99.90
22633;DHT22;11483;55.828;37.488;2022-12-10T00:48:45;-1.50;99.90
22633;DHT22;11483;55.828;37.488;2022-12-10T00:51:14;-1.30;99.90
22633;DHT22;11483;55.828;37.488;2022-12-10T00:53:42;-1.30;99.90
22633;DHT22;11483;55.828;37.488;2022-12-10T00:56:12;-1.20;99.90
22633;DHT22;11483;55.828;37.488;2022-12-10T00:58:39;-1.20;99.90
22633;DHT22;11483;55.828;37.488;2022-12-10T01:01:15;-1.30;99.90
22633;DHT22;11483;55.828;37.488;2022-12-10T01:03:41;-1.30;99.90
22633;DHT22;11483;55.828;37.488;2022-12-10T01:06:34;-1.30;99.90
22633;DHT22;11483;55.828;37.488;2022-12-10T01:09:03;-1.40;99.90
22633;DHT22;11483;55.828;37.488;2022-12-10T01:11:33;-1.40;99.90
22633;DHT22;11483;55.828;37.488;2022-12-10T01:13:59;-1.40;99.90
22633;DHT22;11483;55.828;37.488;2022-12-10T01:16:25;-1.20;99.90
22633;DHT22;11483;55.828;37.488;2022-12-10T01:18:56;-1.10;99.90
22633;DHT22;11483;55.828;37.488;2022-12-10T01:21:25;-1.10;99.90
22633;DHT22;11483;55.828;37.488;2022-12-10T01:23:52;-1.00;99.90
22633;DHT22;11483;55.828;37.488;2022-12-10T01:26:21;-1.00;99.90
22633;DHT22;11483;55.828;37.488;2022-12-10T01:28:48;-1.00;99.90
22633;DHT22;11483;55.828;37.488;2022-12-10T01:31:18;-1.00;99.90
22633;DHT22;11483;55.828;37.488;2022-12-10T01:33:45;-1.00;99.90
22633;DHT22;11483;55.828;37.488;2022-12-10T01:36:21;-1.00;99.90
22633;DHT22;11483;55.828;37.488;2022-12-10T01:38:47;-1.00;99.90
22633;DHT22;11483;55.828;37.488;2022-12-10T01:41:34;-0.90;99.90
22633;DHT22;11483;55.828;37.488;2022-12-10T01:46:35;-0.80;99.90
22633;DHT22;11483;55.828;37.488;2022-12-10T01:49:05;-0.80;99.90
22633;DHT22;11483;55.828;37.488;2022-12-10T01:51:33;-0.70;99.90
22633;DHT22;11483;55.828;37.488;2022-12-10T01:54:00;-0.80;99.90
22633;DHT22;11483;55.828;37.488;2022-12-10T01:56:26;-0.80;99.90
22633;DHT22;11483;55.828;37.488;2022-12-10T01:58:55;-1.00;99.90
22633;DHT22;11483;55.828;37.488;2022-12-10T02:04:15;-1.10;99.90
22633;DHT22;11483;55.828;37.488;2022-12-10T02:07:13;-1.10;99.90
22633;DHT22;11483;55.828;37.488;2022-12-10T02:09:52;-1.00;99.90
22633;DHT22;11483;55.828;37.488;2022-12-10T02:15:35;-1.00;99.90
22633;DHT22;11483;55.828;37.488;2022-12-10T02:18:27;-0.90;99.90
22633;DHT22;11483;55.828;37.488;2022-12-10T02:20:58;-0.80;99.90
22633;DHT22;11483;55.828;37.488;2022-12-10T02:23:36;-0.70;99.90
22633;DHT22;11483;55.828;37.488;2022-12-10T02:26:24;-0.60;99.90
22633;DHT22;11483;55.828;37.488;2022-12-10T02:31:52;-0.50;99.90
22633;DHT22;11483;55.828;37.488;2022-12-10T02:34:20;-0.40;99.90
22633;DHT22;11483;55.828;37.488;2022-12-10T02:36:49;-0.40;99.90
22633;DHT22;11483;55.828;37.488;2022-12-10T02:39:20;-0.30;99.90
22633;DHT22;11483;55.828;37.488;2022-12-10T02:41:51;-0.30;99.90
22633;DHT22;11483;55.828;37.488;2022-12-10T02:44:19;-0.40;99.90
22633;DHT22;11483;55.828;37.488;2022-12-10T02:46:47;-0.40;99.90
22633;DHT22;11483;55.828;37.488;2022-12-10T02:49:15;-0.30;99.90
22633;DHT22;11483;55.828;37.488;2022-12-10T02:51:41;-0.30;99.90
22633;DHT22;11483;55.828;37.488;2022-12-10T02:57:01;-0.30;99.90
22633;DHT22;11483;55.828;37.488;2022-12-10T03:07:47;-0.10;99.90
22633;DHT22;11483;55.828;37.488;2022-12-10T03:12:49;-0.10;99.90
22633;DHT22;11483;55.828;37.488;2022-12-10T03:15:16;-0.20;99.90
22633;DHT22;11483;55.828;37.488;2022-12-10T03:17:43;-0.20;99.90
22633;DHT22;11483;55.828;37.488;2022-12-10T03:20:12;-0.30;99.90
22633;DHT22;11483;55.828;37.488;2022-12-10T03:22:41;-0.40;99.90
22633;DHT22;11483;55.828;37.488;2022-12-10T03:25:10;-0.40;99.90
22633;DHT22;11483;55.828;37.488;2022-12-10T03:27:39;-0.30;99.90
22633;DHT22;11483;55.828;37.488;2022-12-10T03:30:07;-0.30;99.90
22633;DHT22;11483;55.828;37.488;2022-12-10T03:32:34;-0.30;99.90
22633;DHT22;11483;55.828;37.488;2022-12-10T03:35:00;-0.20;99.90
22633;DHT22;11483;55.828;37.488;2022-12-10T03:37:27;-0.20;99.90
22633;DHT22;11483;55.828;37.488;2022-12-10T03:39:55;-0.20;99.90
22633;DHT22;11483;55.828;37.488;2022-12-10T03:42:22;-0.20;99.90
22633;DHT22;11483;55.828;37.488;2022-12-10T03:44:50;-0.20;99.90
22633;DHT22;11483;55.828;37.488;2022-12-10T03:47:17;-0.20;99.90
22633;DHT22;11483;55.828;37.488;2022-12-10T03:49:43;-0.20;99.90
22633;DHT22;11483;55.828;37.488;2022-12-10T03:52:10;-0.20;99.90
22633;DHT22;11483;55.828;37.488;2022-12-10T03:54:36;-0.30;99.90
22633;DHT22;11483;55.828;37.488;2022-12-10T03:57:02;-0.30;99.90
22633;DHT22;11483;55.828;37.488;2022-12-10T03:59:28;-0.30;99.90
22633;DHT22;11483;55.828;37.488;2022-12-10T04:01:54;-0.30;99.90
22633;DHT22;11483;55.828;37.488;2022-12-10T04:04:20;-0.20;99.90
22633;DHT22;11483;55.828;37.488;2022-12-10T04:06:45;-0.20;99.90
22633;DHT22;11483;55.828;37.488;2022-12-10T04:09:13;-0.10;99.90
22633;DHT22;11483;55.828;37.488;2022-12-10T04:11:39;-0.10;99.90
22633;DHT22;11483;55.828;37.488;2022-12-10T04:14:05;-0.10;99.90
22633;DHT22;11483;55.828;37.488;2022-12-10T04:16:49;-0.10;99.90
22633;DHT22;11483;55.828;37.488;2022-12-10T04:19:17;-0.10;99.90
22633;DHT22;11483;55.828;37.488;2022-12-10T04:21:44;-0.10;99.90
22633;DHT22;11483;55.828;37.488;2022-12-10T04:24:31;-0.10;99.90
22633;DHT22;11483;55.828;37.488;2022-12-10T04:27:38;0.00;99.90
22633;DHT22;11483;55.828;37.488;2022-12-10T04:30:07;-0.10;99.90
22633;DHT22;11483;55.828;37.488;2022-12-10T04:32:33;0.00;99.90
22633;DHT22;11483;55.828;37.488;2022-12-10T04:34:59;0.00;99.90
22633;DHT22;11483;55.828;37.488;2022-12-10T04:37:26;0.10;99.90
22633;DHT22;11483;55.828;37.488;2022-12-10T04:39:52;0.10;99.90
22633;DHT22;11483;55.828;37.488;2022-12-10T04:42:19;0.20;99.90
22633;DHT22;11483;55.828;37.488;2022-12-10T04:44:45;0.10;99.90
22633;DHT22;11483;55.828;37.488;2022-12-10T04:47:12;0.10;99.90
22633;DHT22;11483;55.828;37.488;2022-12-10T04:49:38;0.20;99.90
22633;DHT22;11483;55.828;37.488;2022-12-10T04:52:05;0.30;99.90
22633;DHT22;11483;55.828;37.488;2022-12-10T04:54:31;0.30;99.90
22633;DHT22;11483;55.828;37.488;2022-12-10T04:56:57;0.30;99.90
22633;DHT22;11483;55.828;37.488;2022-12-10T04:59:23;0.30;99.90
22633;DHT22;11483;55.828;37.488;2022-12-10T05:01:49;0.20;99.90
22633;DHT22;11483;55.828;37.488;2022-12-10T05:04:16;0.20;99.90
22633;DHT22;11483;55.828;37.488;2022-12-10T05:06:43;0.20;99.90
22633;DHT22;11483;55.828;37.488;2022-12-10T05:09:12;0.20;99.90
22633;DHT22;11483;55.828;37.488;2022-12-10T05:11:39;0.20;99.90
22633;DHT22;11483;55.828;37.488;2022-12-10T05:14:05;0.10;99.90
22633;DHT22;11483;55.828;37.488;2022-12-10T05:16:32;0.20;99.90
22633;DHT22;11483;55.828;37.488;2022-12-10T05:18:59;0.30;99.90
22633;DHT22;11483;55.828;37.488;2022-12-10T05:21:27;0.30;99.90
22633;DHT22;11483;55.828;37.488;2022-12-10T05:24:12;0.30;99.90
22633;DHT22;11483;55.828;37.488;2022-12-10T05:26:37;0.30;99.90
22633;DHT22;11483;55.828;37.488;2022-12-10T05:29:03;0.30;99.90
22633;DHT22;11483;55.828;37.488;2022-12-10T05:31:30;0.40;99.90
22633;DHT22;11483;55.828;37.488;2022-12-10T05:33:57;0.20;99.90
22633;DHT22;11483;55.828;37.488;2022-12-10T05:36:27;0.20;99.90
22633;DHT22;11483;55.828;37.488;2022-12-10T05:38:54;0.10;99.90
22633;DHT22;11483;55.828;37.488;2022-12-10T05:41:23;0.20;99.90
22633;DHT22;11483;55.828;37.488;2022-12-10T05:43:50;0.20;99.90
22633;DHT22;11483;55.828;37.488;2022-12-10T05:46:22;0.20;99.90
22633;DHT22;11483;55.828;37.488;2022-12-10T05:48:48;0.20;99.90
22633;DHT22;11483;55.828;37.488;2022-12-10T05:51:20;0.20;99.90
22633;DHT22;11483;55.828;37.488;2022-12-10T05:53:47;0.20;99.90
22633;DHT22;11483;55.828;37.488;2022-12-10T05:56:18;0.20;99.90
22633;DHT22;11483;55.828;37.488;2022-12-10T05:58:45;0.20;99.90
22633;DHT22;11483;55.828;37.488;2022-12-10T06:01:14;0.20;99.90
22633;DHT22;11483;55.828;37.488;2022-12-10T06:03:41;0.20;99.90
22633;DHT22;11483;55.828;37.488;2022-12-10T06:06:08;0.20;99.90
22633;DHT22;11483;55.828;37.488;2022-12-10T06:08:34;0.20;99.90
22633;DHT22;11483;55.828;37.488;2022-12-10T06:11:05;0.30;99.90
22633;DHT22;11483;55.828;37.488;2022-12-10T06:13:31;0.30;99.90
22633;DHT22;11483;55.828;37.488;2022-12-10T06:15:57;0.30;99.90
22633;DHT22;11483;55.828;37.488;2022-12-10T06:18:23;0.30;99.90
22633;DHT22;11483;55.828;37.488;2022-12-10T06:20:49;0.30;99.90
22633;DHT22;11483;55.828;37.488;2022-12-10T06:23:16;0.40;99.90
22633;DHT22;11483;55.828;37.488;2022-12-10T06:25:42;0.40;99.90
22633;DHT22;11483;55.828;37.488;2022-12-10T06:28:08;0.50;99.90
22633;DHT22;11483;55.828;37.488;2022-12-10T06:30:34;0.60;99.90
22633;DHT22;11483;55.828;37.488;2022-12-10T06:33:00;0.70;99.90
22633;DHT22;11483;55.828;37.488;2022-12-10T06:35:26;0.80;99.90
22633;DHT22;11483;55.828;37.488;2022-12-10T06:37:52;0.80;99.90
22633;DHT22;11483;55.828;37.488;2022-12-10T06:40:18;0.90;99.90
22633;DHT22;11483;55.828;37.488;2022-12-10T06:42:44;0.90;99.90
22633;DHT22;11483;55.828;37.488;2022-12-10T06:45:10;0.90;99.90
22633;DHT22;11483;55.828;37.488;2022-12-10T06:47:36;0.80;99.90
22633;DHT22;11483;55.828;37.488;2022-12-10T06:50:02;0.80;99.90
22633;DHT22;11483;55.828;37.488;2022-12-10T06:52:28;0.80;99.90
22633;DHT22;11483;55.828;37.488;2022-12-10T06:54:54;0.80;99.90
22633;DHT22;11483;55.828;37.488;2022-12-10T06:57:21;0.80;99.90
22633;DHT22;11483;55.828;37.488;2022-12-10T06:59:47;0.80;99.90
22633;DHT22;11483;55.828;37.488;2022-12-10T07:02:13;0.80;99.90
22633;DHT22;11483;55.828;37.488;2022-12-10T07:04:39;0.80;99.90
22633;DHT22;11483;55.828;37.488;2022-12-10T07:07:05;0.80;99.90
22633;DHT22;11483;55.828;37.488;2022-12-10T07:09:33;0.80;99.90
22633;DHT22;11483;55.828;37.488;2022-12-10T07:11:59;0.90;99.90
22633;DHT22;11483;55.828;37.488;2022-12-10T07:14:25;0.80;99.90
22633;DHT22;11483;55.828;37.488;2022-12-10T07:16:51;0.80;99.90
22633;DHT22;11483;55.828;37.488;2022-12-10T07:19:17;0.80;99.90
22633;DHT22;11483;55.828;37.488;2022-12-10T07:21:43;0.90;99.90
22633;DHT22;11483;55.828;37.488;2022-12-10T07:24:14;1.00;99.90
22633;DHT22;11483;55.828;37.488;2022-12-10T07:26:42;1.10;99.90
22633;DHT22;11483;55.828;37.488;2022-12-10T07:29:14;1.10;99.90
22633;DHT22;11483;55.828;37.488;2022-12-10T07:31:40;1.10;99.90
22633;DHT22;11483;55.828;37.488;2022-12-10T07:34:07;1.10;99.90
22633;DHT22;11483;55.828;37.488;2022-12-10T07:36:33;1.20;99.90
22633;DHT22;11483;55.828;37.488;2022-12-10T07:38:58;1.20;99.90
22633;DHT22;11483;55.828;37.488;2022-12-10T07:41:25;1.30;99.90
22633;DHT22;11483;55.828;37.488;2022-12-10T07:43:51;1.30;99.90
22633;DHT22;11483;55.828;37.488;2022-12-10T07:46:23;1.30;99.90
22633;DHT22;11483;55.828;37.488;2022-12-10T07:48:50;1.40;99.90
22633;DHT22;11483;55.828;37.488;2022-12-10T07:51:17;1.40;99.90
22633;DHT22;11483;55.828;37.488;2022-12-10T07:53:44;1.50;99.90
22633;DHT22;11483;55.828;37.488;2022-12-10T07:56:10;1.50;99.90
22633;DHT22;11483;55.828;37.488;2022-12-10T07:58:36;1.40;99.90
22633;DHT22;11483;55.828;37.488;2022-12-10T08:01:07;1.30;99.90
22633;DHT22;11483;55.828;37.488;2022-12-10T08:03:33;1.30;99.90
22633;DHT22;11483;55.828;37.488;2022-12-10T08:06:03;1.20;99.90
22633;DHT22;11483;55.828;37.488;2022-12-10T08:08:29;1.20;99.90
22633;DHT22;11483;55.828;37.488;2022-12-10T08:10:59;1.20;99.90
22633;DHT22;11483;55.828;37.488;2022-12-10T08:13:25;1.20;99.90
22633;DHT22;11483;55.828;37.488;2022-12-10T08:15:51;1.20;99.90
22633;DHT22;11483;55.828;37.488;2022-12-10T08:18:17;1.20;99.90
22633;DHT22;11483;55.828;37.488;2022-12-10T08:20:43;1.30;99.90
22633;DHT22;11483;55.828;37.488;2022-12-10T08:23:09;1.20;99.90
22633;DHT22;11483;55.828;37.488;2022-12-10T08:25:36;1.20;99.90
22633;DHT22;11483;55.828;37.488;2022-12-10T08:28:02;1.20;99.90
22633;DHT22;11483;55.828;37.488;2022-12-10T08:30:29;1.30;99.90
22633;DHT22;11483;55.828;37.488;2022-12-10T08:32:55;1.30;99.90
22633;DHT22;11483;55.828;37.488;2022-12-10T08:35:23;1.40;99.90
22633;DHT22;11483;55.828;37.488;2022-12-10T08:37:49;1.40;99.90
22633;DHT22;11483;55.828;37.488;2022-12-10T08:40:14;1.40;99.90
22633;DHT22;11483;55.828;37.488;2022-12-10T08:42:40;1.40;99.90
22633;DHT22;11483;55.828;37.488;2022-12-10T08:45:06;1.40;99.90
22633;DHT22;11483;55.828;37.488;2022-12-10T08:47:32;1.40;99.90
22633;DHT22;11483;55.828;37.488;2022-12-10T08:49:58;1.40;99.90
22633;DHT22;11483;55.828;37.488;2022-12-10T08:52:24;1.40;99.90
22633;DHT22;11483;55.828;37.488;2022-12-10T08:54:50;1.50;99.90
22633;DHT22;11483;55.828;37.488;2022-12-10T08:57:16;1.50;99.90
22633;DHT22;11483;55.828;37.488;2022-12-10T08:59:42;1.50;99.90
22633;DHT22;11483;55.828;37.488;2022-12-10T09:02:10;1.40;99.90
22633;DHT22;11483;55.828;37.488;2022-12-10T09:04:36;1.40;99.90
22633;DHT22;11483;55.828;37.488;2022-12-10T09:07:02;1.40;99.90
22633;DHT22;11483;55.828;37.488;2022-12-10T09:09:28;1.40;99.90
22633;DHT22;11483;55.828;37.488;2022-12-10T09:11:54;1.40;99.90
22633;DHT22;11483;55.828;37.488;2022-12-10T09:14:20;1.40;99.90
22633;DHT22;11483;55.828;37.488;2022-12-10T09:16:46;1.40;99.90
22633;DHT22;11483;55.828;37.488;2022-12-10T09:19:12;1.40;99.90
22633;DHT22;11483;55.828;37.488;2022-12-10T09:21:37;1.30;99.90
22633;DHT22;11483;55.828;37.488;2022-12-10T09:24:04;1.30;99.90
22633;DHT22;11483;55.828;37.488;2022-12-10T09:26:29;1.30;99.90
22633;DHT22;11483;55.828;37.488;2022-12-10T09:28:55;1.30;99.90
22633;DHT22;11483;55.828;37.488;2022-12-10T09:31:23;1.30;99.90
22633;DHT22;11483;55.828;37.488;2022-12-10T09:33:51;1.30;99.90
22633;DHT22;11483;55.828;37.488;2022-12-10T09:36:18;1.40;99.90
22633;DHT22;11483;55.828;37.488;2022-12-10T09:38:45;1.40;99.90
22633;DHT22;11483;55.828;37.488;2022-12-10T09:52:21;1.30;99.90
22633;DHT22;11483;55.828;37.488;2022-12-10T09:54:59;1.20;99.90
22633;DHT22;11483;55.828;37.488;2022-12-10T09:59:59;1.10;99.90
22633;DHT22;11483;55.828;37.488;2022-12-10T10:02:26;1.10;99.90
22633;DHT22;11483;55.828;37.488;2022-12-10T10:07:35;1.10;99.90
22633;DHT22;11483;55.828;37.488;2022-12-10T10:10:20;1.20;99.90
22633;DHT22;11483;55.828;37.488;2022-12-10T10:12:47;1.20;99.90
22633;DHT22;11483;55.828;37.488;2022-12-10T10:15:16;1.30;99.90
22633;DHT22;11483;55.828;37.488;2022-12-10T10:17:42;1.30;99.90
22633;DHT22;11483;55.828;37.488;2022-12-10T10:20:15;1.20;99.90
22633;DHT22;11483;55.828;37.488;2022-12-10T10:22:41;1.20;99.90
22633;DHT22;11483;55.828;37.488;2022-12-10T10:25:18;1.20;99.90
22633;DHT22;11483;55.828;37.488;2022-12-10T10:27:45;1.20;99.90
22633;DHT22;11483;55.828;37.488;2022-12-10T10:30:17;1.20;99.90
22633;DHT22;11483;55.828;37.488;2022-12-10T10:32:48;1.20;99.90
22633;DHT22;11483;55.828;37.488;2022-12-10T10:35:33;1.20;99.90
22633;DHT22;11483;55.828;37.488;2022-12-10T10:38:07;1.20;99.90
22633;DHT22;11483;55.828;37.488;2022-12-10T10:40:48;1.20;99.90
22633;DHT22;11483;55.828;37.488;2022-12-10T10:46:05;1.30;99.90
22633;DHT22;11483;55.828;37.488;2022-12-10T10:48:32;1.30;99.90
22633;DHT22;11483;55.828;37.488;2022-12-10T10:51:12;1.20;99.90
22633;DHT22;11483;55.828;37.488;2022-12-10T10:53:55;1.20;99.90
22633;DHT22;11483;55.828;37.488;2022-12-10T10:56:27;1.20;99.90
22633;DHT22;11483;55.828;37.488;2022-12-10T10:59:30;1.10;99.90
22633;DHT22;11483;55.828;37.488;2022-12-10T11:02:19;1.10;99.90
22633;DHT22;11483;55.828;37.488;2022-12-10T11:04:55;1.10;99.90
22633;DHT22;11483;55.828;37.488;2022-12-10T11:07:34;1.10;99.90
22633;DHT22;11483;55.828;37.488;2022-12-10T11:10:00;1.20;99.90
22633;DHT22;11483;55.828;37.488;2022-12-10T11:12:38;1.10;99.90
22633;DHT22;11483;55.828;37.488;2022-12-10T11:17:52;1.10;99.90
22633;DHT22;11483;55.828;37.488;2022-12-10T11:20:27;1.10;99.90
22633;DHT22;11483;55.828;37.488;2022-12-10T11:22:58;1.10;99.90
22633;DHT22;11483;55.828;37.488;2022-12-10T11:28:20;1.00;99.90
22633;DHT22;11483;55.828;37.488;2022-12-10T11:31:13;1.00;99.90
22633;DHT22;11483;55.828;37.488;2022-12-10T11:39:10;0.90;99.90
22633;DHT22;11483;55.828;37.488;2022-12-10T11:41:46;0.90;99.90
22633;DHT22;11483;55.828;37.488;2022-12-10T11:58:20;0.70;99.90
22633;DHT22;11483;55.828;37.488;2022-12-10T12:00:59;0.60;99.90
22633;DHT22;11483;55.828;37.488;2022-12-10T12:07:23;0.50;99.90
22633;DHT22;11483;55.828;37.488;2022-12-10T12:12:45;0.50;99.90
22633;DHT22;11483;55.828;37.488;2022-12-10T12:15:22;0.50;99.90
22633;DHT22;11483;55.828;37.488;2022-12-10T12:17:56;0.50;99.90
22633;DHT22;11483;55.828;37.488;2022-12-10T12:20:29;0.60;99.90
22633;DHT22;11483;55.828;37.488;2022-12-10T12:23:15;0.60;99.90
22633;DHT22;11483;55.828;37.488;2022-12-10T12:25:49;0.70;99.90
22633;DHT22;11483;55.828;37.488;2022-12-10T12:28:39;0.70;99.90
22633;DHT22;11483;55.828;37.488;2022-12-10T12:31:13;0.70;99.90
22633;DHT22;11483;55.828;37.488;2022-12-10T12:34:10;0.70;99.90
22633;DHT22;11483;55.828;37.488;2022-12-10T12:36:38;0.70;99.90
22633;DHT22;11483;55.828;37.488;2022-12-10T12:49:53;0.60;99.90
22633;DHT22;11483;55.828;37.488;2022-12-10T12:55:04;0.70;99.90
22633;DHT22;11483;55.828;37.488;2022-12-10T12:57:51;0.70;99.90
22633;DHT22;11483;55.828;37.488;2022-12-10T13:00:20;0.60;99.90
22633;DHT22;11483;55.828;37.488;2022-12-10T13:05:37;0.60;99.90
22633;DHT22;11483;55.828;37.488;2022-12-10T13:13:34;0.60;99.90
22633;DHT22;11483;55.828;37.488;2022-12-10T13:16:59;0.60;99.90
22633;DHT22;11483;55.828;37.488;2022-12-10T13:21:58;0.60;99.90
22633;DHT22;11483;55.828;37.488;2022-12-10T13:24:46;0.70;99.90
22633;DHT22;11483;55.828;37.488;2022-12-10T13:27:17;0.70;99.90
22633;DHT22;11483;55.828;37.488;2022-12-10T13:32:23;0.60;99.90
22633;DHT22;11483;55.828;37.488;2022-12-10T13:35:23;0.60;99.90
22633;DHT22;11483;55.828;37.488;2022-12-10T13:48:56;0.50;99.90
22633;DHT22;11483;55.828;37.488;2022-12-10T13:56:28;0.50;99.90
22633;DHT22;11483;55.828;37.488;2022-12-10T14:07:13;0.50;99.90
22633;DHT22;11483;55.828;37.488;2022-12-10T14:09:52;0.50;99.90
22633;DHT22;11483;55.828;37.488;2022-12-10T14:12:25;0.40;99.90
22633;DHT22;11483;55.828;37.488;2022-12-10T14:14:57;0.40;99.90
22633;DHT22;11483;55.828;37.488;2022-12-10T14:17:34;0.50;99.90
22633;DHT22;11483;55.828;37.488;2022-12-10T14:20:04;0.40;99.90
22633;DHT22;11483;55.828;37.488;2022-12-10T14:22:34;0.40;99.90
22633;DHT22;11483;55.828;37.488;2022-12-10T14:25:03;0.40;99.90
22633;DHT22;11483;55.828;37.488;2022-12-10T14:27:32;0.40;99.90
22633;DHT22;11483;55.828;37.488;2022-12-10T14:30:05;0.40;99.90
22633;DHT22;11483;55.828;37.488;2022-12-10T14:32:34;0.40;99.90
22633;DHT22;11483;55.828;37.488;2022-12-10T14:35:01;0.40;99.90
22633;DHT22;11483;55.828;37.488;2022-12-10T14:37:31;0.40;99.90
22633;DHT22;11483;55.828;37.488;2022-12-10T14:39:59;0.40;99.90
22633;DHT22;11483;55.828;37.488;2022-12-10T14:42:26;0.40;99.90
22633;DHT22;11483;55.828;37.488;2022-12-10T14:45:02;0.40;99.90
22633;DHT22;11483;55.828;37.488;2022-12-10T14:47:37;0.50;99.90
22633;DHT22;11483;55.828;37.488;2022-12-10T14:50:06;0.40;99.90
22633;DHT22;11483;55.828;37.488;2022-12-10T14:52:43;0.50;99.90
22633;DHT22;11483;55.828;37.488;2022-12-10T14:55:14;0.50;99.90
22633;DHT22;11483;55.828;37.488;2022-12-10T14:57:44;0.40;99.90
22633;DHT22;11483;55.828;37.488;2022-12-10T15:00:14;0.40;99.90
22633;DHT22;11483;55.828;37.488;2022-12-10T15:02:42;0.40;99.90
22633;DHT22;11483;55.828;37.488;2022-12-10T15:05:17;0.40;99.90
22633;DHT22;11483;55.828;37.488;2022-12-10T15:07:57;0.40;99.90
22633;DHT22;11483;55.828;37.488;2022-12-10T15:12:59;0.40;99.90
22633;DHT22;11483;55.828;37.488;2022-12-10T15:15:39;0.40;99.90
22633;DHT22;11483;55.828;37.488;2022-12-10T15:18:16;0.40;99.90
22633;DHT22;11483;55.828;37.488;2022-12-10T15:20:51;0.40;99.90
22633;DHT22;11483;55.828;37.488;2022-12-10T15:28:31;0.40;99.90
22633;DHT22;11483;55.828;37.488;2022-12-10T15:33:52;0.40;99.90
22633;DHT22;11483;55.828;37.488;2022-12-10T15:36:47;0.50;99.90
22633;DHT22;11483;55.828;37.488;2022-12-10T15:39:26;0.50;99.90
22633;DHT22;11483;55.828;37.488;2022-12-10T15:41:55;0.50;99.90
22633;DHT22;11483;55.828;37.488;2022-12-10T15:49:27;0.50;99.90
22633;DHT22;11483;55.828;37.488;2022-12-10T15:51:53;0.50;99.90
22633;DHT22;11483;55.828;37.488;2022-12-10T15:54:40;0.50;99.90
22633;DHT22;11483;55.828;37.488;2022-12-10T15:57:13;0.50;99.90
22633;DHT22;11483;55.828;37.488;2022-12-10T15:59:41;0.50;99.90
22633;DHT22;11483;55.828;37.488;2022-12-10T16:03:26;0.50;99.90
22633;DHT22;11483;55.828;37.488;2022-12-10T16:05:33;0.50;99.90
22633;DHT22;11483;55.828;37.488;2022-12-10T16:08:15;0.50;99.90
22633;DHT22;11483;55.828;37.488;2022-12-10T16:10:45;0.50;99.90
22633;DHT22;11483;55.828;37.488;2022-12-10T16:13:17;0.50;99.90
22633;DHT22;11483;55.828;37.488;2022-12-10T16:15:48;0.50;99.90
22633;DHT22;11483;55.828;37.488;2022-12-10T16:18:14;0.50;99.90
22633;DHT22;11483;55.828;37.488;2022-12-10T16:20:41;0.50;99.90
22633;DHT22;11483;55.828;37.488;2022-12-10T16:23:07;0.50;99.90
22633;DHT22;11483;55.828;37.488;2022-12-10T16:25:35;0.60;99.90
22633;DHT22;11483;55.828;37.488;2022-12-10T16:28:04;0.60;99.90
22633;DHT22;11483;55.828;37.488;2022-12-10T16:30:54;0.70;99.90
22633;DHT22;11483;55.828;37.488;2022-12-10T16:33:22;0.70;99.90
22633;DHT22;11483;55.828;37.488;2022-12-10T16:35:51;0.70;99.90
22633;DHT22;11483;55.828;37.488;2022-12-10T16:38:18;0.70;99.90
22633;DHT22;11483;55.828;37.488;2022-12-10T16:40:45;0.80;99.90
22633;DHT22;11483;55.828;37.488;2022-12-10T16:43:23;0.80;99.90
22633;DHT22;11483;55.828;37.488;2022-12-10T16:45:51;0.80;99.90
22633;DHT22;11483;55.828;37.488;2022-12-10T16:48:17;0.80;99.90
22633;DHT22;11483;55.828;37.488;2022-12-10T16:50:44;0.80;99.90
22633;DHT22;11483;55.828;37.488;2022-12-10T16:53:28;0.80;99.90
22633;DHT22;11483;55.828;37.488;2022-12-10T16:55:55;0.80;99.90
22633;DHT22;11483;55.828;37.488;2022-12-10T16:58:22;0.80;99.90
22633;DHT22;11483;55.828;37.488;2022-12-10T17:00:50;0.80;99.90
22633;DHT22;11483;55.828;37.488;2022-12-10T17:03:21;0.80;99.90
22633;DHT22;11483;55.828;37.488;2022-12-10T17:05:55;0.80;99.90
22633;DHT22;11483;55.828;37.488;2022-12-10T17:08:22;0.80;99.90
22633;DHT22;11483;55.828;37.488;2022-12-10T17:10:49;0.80;99.90
22633;DHT22;11483;55.828;37.488;2022-12-10T17:13:33;0.80;99.90
22633;DHT22;11483;55.828;37.488;2022-12-10T17:16:00;0.90;99.90
22633;DHT22;11483;55.828;37.488;2022-12-10T17:18:26;0.80;99.90
22633;DHT22;11483;55.828;37.488;2022-12-10T17:20:52;0.80;99.90
22633;DHT22;11483;55.828;37.488;2022-12-10T17:23:18;0.80;99.90
22633;DHT22;11483;55.828;37.488;2022-12-10T17:25:44;0.80;99.90
22633;DHT22;11483;55.828;37.488;2022-12-10T17:28:16;0.80;99.90
22633;DHT22;11483;55.828;37.488;2022-12-10T17:30:43;0.80;99.90
22633;DHT22;11483;55.828;37.488;2022-12-10T17:33:18;0.90;99.90
22633;DHT22;11483;55.828;37.488;2022-12-10T17:35:45;0.80;99.90
22633;DHT22;11483;55.828;37.488;2022-12-10T17:38:18;0.90;99.90
22633;DHT22;11483;55.828;37.488;2022-12-10T17:40:47;0.90;99.90
22633;DHT22;11483;55.828;37.488;2022-12-10T17:43:13;0.90;99.90
22633;DHT22;11483;55.828;37.488;2022-12-10T17:45:40;0.90;99.90
22633;DHT22;11483;55.828;37.488;2022-12-10T17:48:11;0.90;99.90
22633;DHT22;11483;55.828;37.488;2022-12-10T17:50:38;0.90;99.90
22633;DHT22;11483;55.828;37.488;2022-12-10T17:53:06;0.90;99.90
22633;DHT22;11483;55.828;37.488;2022-12-10T17:55:40;0.90;99.90
22633;DHT22;11483;55.828;37.488;2022-12-10T17:58:07;0.90;99.90
22633;DHT22;11483;55.828;37.488;2022-12-10T18:00:36;0.90;99.90
22633;DHT22;11483;55.828;37.488;2022-12-10T18:03:03;0.90;99.90
22633;DHT22;11483;55.828;37.488;2022-12-10T18:05:29;0.90;99.90
22633;DHT22;11483;55.828;37.488;2022-12-10T18:07:56;0.90;99.90
22633;DHT22;11483;55.828;37.488;2022-12-10T18:10:25;0.90;99.90